sensor_id;sensor_type;location;lat;lon;timestamp;temperature;humidity
22674;DHT22;11504;43.334;21.918;2022-08-11T00:01:17;20.2;100.0
22674;DHT22;11504;43.334;21.918;2022-08-11T00:06:04;20.2;100.0
22674;DHT22;11504;43.334;21.918;2022-08-11T00:10:57;20.2;100.0
22674;DHT22;11504;43.334;21.918;2022-08-11T00:15:48;20.2;100.0
22674;DHT22;11504;43.334;21.918;2022-08-11T00:20:33;20.2;100.0
22674;DHT22;11504;43.334;21.918;2022-08-11T00:25:23;20.2;100.0
22674;DHT22;11504;43.334;21.918;2022-08-11T00:30:04;20.2;100.0
22674;DHT22;11504;43.334;21.918;2022-08-11T00:34:49;20.2;100.0
22674;DHT22;11504;43.334;21.918;2022-08-11T00:39:44;20.2;100.0
22674;DHT22;11504;43.334;21.918;2022-08-11T00:44:59;20.2;100.0
22674;DHT22;11504;43.334;21.918;2022-08-11T00:50:28;20.1;100.0
22674;DHT22;11504;43.334;21.918;2022-08-11T00:56:48;20.1;100.0
22674;DHT22;11504;43.334;21.918;2022-08-11T01:03:43;20.0;100.0
22674;DHT22;11504;43.334;21.918;2022-08-11T01:11:38;20.0;100.0
22674;DHT22;11504;43.334;21.918;2022-08-11T01:18:31;20.0;100.0
22674;DHT22;11504;43.334;21.918;2022-08-11T01:28:06;19.9;100.0
22674;DHT22;11504;43.334;21.918;2022-08-11T01:35:47;19.8;100.0
22674;DHT22;11504;43.334;21.918;2022-08-11T01:46:27;19.6;100.0
22674;DHT22;11504;43.334;21.918;2022-08-11T01:52:08;19.5;100.0
22674;DHT22;11504;43.334;21.918;2022-08-11T01:57:27;19.5;100.0
22674;DHT22;11504;43.334;21.918;2022-08-11T02:02:44;19.4;100.0
22674;DHT22;11504;43.334;21.918;2022-08-11T02:08:12;19.4;100.0
22674;DHT22;11504;43.334;21.918;2022-08-11T02:13:45;19.3;100.0
22674;DHT22;11504;43.334;21.918;2022-08-11T02:18:52;19.2;100.0
22674;DHT22;11504;43.334;21.918;2022-08-11T02:24:16;19.2;100.0
22674;DHT22;11504;43.334;21.918;2022-08-11T02:29:37;19.2;100.0
22674;DHT22;11504;43.334;21.918;2022-08-11T02:34:58;19.2;100.0
22674;DHT22;11504;43.334;21.918;2022-08-11T02:40:26;19.3;100.0
22674;DHT22;11504;43.334;21.918;2022-08-11T02:46:19;19.3;100.0
22674;DHT22;11504;43.334;21.918;2022-08-11T02:52:08;19.4;100.0
22674;DHT22;11504;43.334;21.918;2022-08-11T02:57:39;19.4;100.0
22674;DHT22;11504;43.334;21.918;2022-08-11T03:03:19;19.4;100.0
22674;DHT22;11504;43.334;21.918;2022-08-11T03:09:03;19.4;100.0
22674;DHT22;11504;43.334;21.918;2022-08-11T03:14:24;19.4;100.0
22674;DHT22;11504;43.334;21.918;2022-08-11T03:19:36;19.4;100.0
22674;DHT22;11504;43.334;21.918;2022-08-11T03:25:08;19.4;100.0
22674;DHT22;11504;43.334;21.918;2022-08-11T03:30:18;19.3;100.0
22674;DHT22;11504;43.334;21.918;2022-08-11T03:35:19;19.3;100.0
22674;DHT22;11504;43.334;21.918;2022-08-11T03:40:27;19.4;100.0
22674;DHT22;11504;43.334;21.918;2022-08-11T03:46:15;19.4;100.0
22674;DHT22;11504;43.334;21.918;2022-08-11T03:51:59;19.4;100.0
22674;DHT22;11504;43.334;21.918;2022-08-11T04:01:42;19.4;100.0
22674;DHT22;11504;43.334;21.918;2022-08-11T04:10:57;19.4;100.0
22674;DHT22;11504;43.334;21.918;2022-08-11T04:17:03;19.4;100.0
22674;DHT22;11504;43.334;21.918;2022-08-11T04:23:23;19.5;100.0
22674;DHT22;11504;43.334;21.918;2022-08-11T04:31:37;19.6;100.0
22674;DHT22;11504;43.334;21.918;2022-08-11T04:37:45;19.6;100.0
22674;DHT22;11504;43.334;21.918;2022-08-11T04:44:22;21.2;100.0
22674;DHT22;11504;43.334;21.918;2022-08-11T04:50:34;22.9;100.0
22674;DHT22;11504;43.334;21.918;2022-08-11T04:56:08;22.9;100.0
22674;DHT22;11504;43.334;21.918;2022-08-11T05:01:27;24.3;100.0
22674;DHT22;11504;43.334;21.918;2022-08-11T05:08:28;24.3;100.0
22674;DHT22;11504;43.334;21.918;2022-08-11T05:14:33;25.7;100.0
22674;DHT22;11504;43.334;21.918;2022-08-11T05:19:25;26.7;100.0
22674;DHT22;11504;43.334;21.918;2022-08-11T05:24:21;26.7;100.0
22674;DHT22;11504;43.334;21.918;2022-08-11T05:29:44;27.7;100.0
22674;DHT22;11504;43.334;21.918;2022-08-11T05:34:51;27.7;100.0
22674;DHT22;11504;43.334;21.918;2022-08-11T05:39:48;31.1;100.0
22674;DHT22;11504;43.334;21.918;2022-08-11T05:44:46;31.1;100.0
22674;DHT22;11504;43.334;21.918;2022-08-11T05:49:35;34.5;100.0
22674;DHT22;11504;43.334;21.918;2022-08-11T05:54:16;34.5;100.0
22674;DHT22;11504;43.334;21.918;2022-08-11T05:58:57;35.8;100.0
22674;DHT22;11504;43.334;21.918;2022-08-11T06:03:37;35.8;100.0
22674;DHT22;11504;43.334;21.918;2022-08-11T06:08:33;35.8;100.0
22674;DHT22;11504;43.334;21.918;2022-08-11T06:13:17;37.1;100.0
22674;DHT22;11504;43.334;21.918;2022-08-11T06:18:00;37.1;100.0
22674;DHT22;11504;43.334;21.918;2022-08-11T06:22:55;37.4;100.0
22674;DHT22;11504;43.334;21.918;2022-08-11T06:27:53;37.4;100.0
22674;DHT22;11504;43.334;21.918;2022-08-11T06:32:36;37.8;100.0
22674;DHT22;11504;43.334;21.918;2022-08-11T06:37:43;37.8;100.0
22674;DHT22;11504;43.334;21.918;2022-08-11T06:42:57;37.7;100.0
22674;DHT22;11504;43.334;21.918;2022-08-11T06:48:00;37.7;100.0
22674;DHT22;11504;43.334;21.918;2022-08-11T06:52:45;37.6;100.0
22674;DHT22;11504;43.334;21.918;2022-08-11T06:57:29;37.6;100.0
22674;DHT22;11504;43.334;21.918;2022-08-11T07:02:29;35.8;100.0
22674;DHT22;11504;43.334;21.918;2022-08-11T07:08:42;35.8;100.0
22674;DHT22;11504;43.334;21.918;2022-08-11T07:14:14;34.1;100.0
22674;DHT22;11504;43.334;21.918;2022-08-11T07:19:06;34.0;100.0
22674;DHT22;11504;43.334;21.918;2022-08-11T07:23:45;34.0;100.0
22674;DHT22;11504;43.334;21.918;2022-08-11T07:28:29;34.0;100.0
22674;DHT22;11504;43.334;21.918;2022-08-11T07:33:41;34.0;100.0
22674;DHT22;11504;43.334;21.918;2022-08-11T07:38:45;34.0;100.0
22674;DHT22;11504;43.334;21.918;2022-08-11T07:43:35;33.2;100.0
22674;DHT22;11504;43.334;21.918;2022-08-11T07:48:20;33.2;100.0
22674;DHT22;11504;43.334;21.918;2022-08-11T07:53:02;32.4;100.0
22674;DHT22;11504;43.334;21.918;2022-08-11T07:57:46;32.4;100.0
22674;DHT22;11504;43.334;21.918;2022-08-11T08:02:24;31.4;100.0
22674;DHT22;11504;43.334;21.918;2022-08-11T08:07:06;31.4;100.0
22674;DHT22;11504;43.334;21.918;2022-08-11T08:11:46;30.4;100.0
22674;DHT22;11504;43.334;21.918;2022-08-11T08:16:28;30.4;100.0
22674;DHT22;11504;43.334;21.918;2022-08-11T08:21:09;31.2;100.0
22674;DHT22;11504;43.334;21.918;2022-08-11T08:25:51;31.2;100.0
22674;DHT22;11504;43.334;21.918;2022-08-11T08:30:30;32.0;100.0
22674;DHT22;11504;43.334;21.918;2022-08-11T08:35:11;32.0;100.0
22674;DHT22;11504;43.334;21.918;2022-08-11T08:39:51;32.6;100.0
22674;DHT22;11504;43.334;21.918;2022-08-11T08:44:39;32.6;100.0
22674;DHT22;11504;43.334;21.918;2022-08-11T08:49:43;33.1;100.0
22674;DHT22;11504;43.334;21.918;2022-08-11T08:54:37;33.1;100.0
22674;DHT22;11504;43.334;21.918;2022-08-11T08:59:25;33.2;100.0
22674;DHT22;11504;43.334;21.918;2022-08-11T09:04:08;33.2;100.0
22674;DHT22;11504;43.334;21.918;2022-08-11T09:08:46;33.2;100.0
22674;DHT22;11504;43.334;21.918;2022-08-11T09:13:26;33.4;100.0
22674;DHT22;11504;43.334;21.918;2022-08-11T09:18:04;33.4;100.0
22674;DHT22;11504;43.334;21.918;2022-08-11T09:22:48;33.6;100.0
22674;DHT22;11504;43.334;21.918;2022-08-11T09:27:37;33.6;100.0
22674;DHT22;11504;43.334;21.918;2022-08-11T09:32:21;33.9;100.0
22674;DHT22;11504;43.334;21.918;2022-08-11T09:37:00;33.9;100.0
22674;DHT22;11504;43.334;21.918;2022-08-11T09:41:44;33.6;100.0
22674;DHT22;11504;43.334;21.918;2022-08-11T09:46:30;33.6;100.0
22674;DHT22;11504;43.334;21.918;2022-08-11T09:51:11;33.4;100.0
22674;DHT22;11504;43.334;21.918;2022-08-11T09:55:54;33.4;100.0
22674;DHT22;11504;43.334;21.918;2022-08-11T10:00:36;33.2;100.0
22674;DHT22;11504;43.334;21.918;2022-08-11T10:05:19;33.2;100.0
22674;DHT22;11504;43.334;21.918;2022-08-11T10:10:02;33.1;100.0
22674;DHT22;11504;43.334;21.918;2022-08-11T10:14:53;33.1;100.0
22674;DHT22;11504;43.334;21.918;2022-08-11T10:19:55;33.2;100.0
22674;DHT22;11504;43.334;21.918;2022-08-11T10:24:42;33.2;100.0
22674;DHT22;11504;43.334;21.918;2022-08-11T10:29:31;33.4;100.0
22674;DHT22;11504;43.334;21.918;2022-08-11T10:34:20;33.4;100.0
22674;DHT22;11504;43.334;21.918;2022-08-11T10:39:04;33.4;100.0
22674;DHT22;11504;43.334;21.918;2022-08-11T10:43:44;33.0;100.0
22674;DHT22;11504;43.334;21.918;2022-08-11T10:48:29;33.0;100.0
22674;DHT22;11504;43.334;21.918;2022-08-11T10:53:18;32.6;100.0
22674;DHT22;11504;43.334;21.918;2022-08-11T10:57:59;32.6;100.0
22674;DHT22;11504;43.334;21.918;2022-08-11T11:02:39;32.4;100.0
22674;DHT22;11504;43.334;21.918;2022-08-11T11:07:37;32.4;100.0
22674;DHT22;11504;43.334;21.918;2022-08-11T11:12:55;32.3;100.0
22674;DHT22;11504;43.334;21.918;2022-08-11T11:17:46;32.3;100.0
22674;DHT22;11504;43.334;21.918;2022-08-11T11:22:31;31.9;100.0
22674;DHT22;11504;43.334;21.918;2022-08-11T11:27:31;31.9;100.0
22674;DHT22;11504;43.334;21.918;2022-08-11T11:32:58;31.5;100.0
22674;DHT22;11504;43.334;21.918;2022-08-11T11:37:58;31.5;100.0
22674;DHT22;11504;43.334;21.918;2022-08-11T11:42:45;31.3;100.0
22674;DHT22;11504;43.334;21.918;2022-08-11T11:47:34;31.3;100.0
22674;DHT22;11504;43.334;21.918;2022-08-11T11:52:21;31.1;100.0
22674;DHT22;11504;43.334;21.918;2022-08-11T11:57:05;31.1;100.0
22674;DHT22;11504;43.334;21.918;2022-08-11T12:01:45;31.2;100.0
22674;DHT22;11504;43.334;21.918;2022-08-11T12:06:25;31.2;100.0
22674;DHT22;11504;43.334;21.918;2022-08-11T12:11:12;31.4;100.0
22674;DHT22;11504;43.334;21.918;2022-08-11T12:16:03;31.4;100.0
22674;DHT22;11504;43.334;21.918;2022-08-11T12:20:46;31.8;100.0
22674;DHT22;11504;43.334;21.918;2022-08-11T12:25:25;31.8;100.0
22674;DHT22;11504;43.334;21.918;2022-08-11T12:30:07;32.2;100.0
22674;DHT22;11504;43.334;21.918;2022-08-11T12:34:49;32.2;100.0
22674;DHT22;11504;43.334;21.918;2022-08-11T12:39:38;32.0;100.0
22674;DHT22;11504;43.334;21.918;2022-08-11T12:44:30;32.0;100.0
22674;DHT22;11504;43.334;21.918;2022-08-11T12:49:19;31.8;100.0
22674;DHT22;11504;43.334;21.918;2022-08-11T12:54:12;31.8;100.0
22674;DHT22;11504;43.334;21.918;2022-08-11T12:59:08;31.8;100.0
22674;DHT22;11504;43.334;21.918;2022-08-11T13:03:48;31.6;100.0
22674;DHT22;11504;43.334;21.918;2022-08-11T13:08:35;31.6;100.0
22674;DHT22;11504;43.334;21.918;2022-08-11T13:13:21;31.4;100.0
22674;DHT22;11504;43.334;21.918;2022-08-11T13:18:05;31.4;100.0
22674;DHT22;11504;43.334;21.918;2022-08-11T13:22:52;31.4;100.0
22674;DHT22;11504;43.334;21.918;2022-08-11T13:27:38;31.4;100.0
22674;DHT22;11504;43.334;21.918;2022-08-11T13:32:20;31.3;100.0
22674;DHT22;11504;43.334;21.918;2022-08-11T13:37:04;31.3;100.0
22674;DHT22;11504;43.334;21.918;2022-08-11T13:41:44;31.3;100.0
22674;DHT22;11504;43.334;21.918;2022-08-11T13:46:27;31.3;100.0
22674;DHT22;11504;43.334;21.918;2022-08-11T13:51:08;31.3;100.0
22674;DHT22;11504;43.334;21.918;2022-08-11T13:55:50;31.3;100.0
22674;DHT22;11504;43.334;21.918;2022-08-11T14:00:29;31.4;100.0
22674;DHT22;11504;43.334;21.918;2022-08-11T14:05:15;31.4;100.0
22674;DHT22;11504;43.334;21.918;2022-08-11T14:10:15;31.5;100.0
22674;DHT22;11504;43.334;21.918;2022-08-11T14:15:10;31.5;100.0
22674;DHT22;11504;43.334;21.918;2022-08-11T14:20:08;31.3;100.0
22674;DHT22;11504;43.334;21.918;2022-08-11T14:24:59;31.3;100.0
22674;DHT22;11504;43.334;21.918;2022-08-11T14:29:41;31.1;100.0
22674;DHT22;11504;43.334;21.918;2022-08-11T14:34:27;31.1;100.0
22674;DHT22;11504;43.334;21.918;2022-08-11T14:39:15;31.1;100.0
22674;DHT22;11504;43.334;21.918;2022-08-11T14:44:12;30.9;100.0
22674;DHT22;11504;43.334;21.918;2022-08-11T14:48:51;30.9;100.0
22674;DHT22;11504;43.334;21.918;2022-08-11T14:53:31;30.7;100.0
22674;DHT22;11504;43.334;21.918;2022-08-11T14:58:19;30.7;100.0
22674;DHT22;11504;43.334;21.918;2022-08-11T15:03:14;30.3;100.0
22674;DHT22;11504;43.334;21.918;2022-08-11T15:07:59;30.3;100.0
22674;DHT22;11504;43.334;21.918;2022-08-11T15:12:46;29.9;100.0
22674;DHT22;11504;43.334;21.918;2022-08-11T15:17:30;29.9;100.0
22674;DHT22;11504;43.334;21.918;2022-08-11T15:22:14;29.8;100.0
22674;DHT22;11504;43.334;21.918;2022-08-11T15:26:55;29.8;100.0
22674;DHT22;11504;43.334;21.918;2022-08-11T15:31:49;29.6;100.0
22674;DHT22;11504;43.334;21.918;2022-08-11T15:36:32;29.6;100.0
22674;DHT22;11504;43.334;21.918;2022-08-11T15:41:40;29.5;100.0
22674;DHT22;11504;43.334;21.918;2022-08-11T15:47:02;29.5;100.0
22674;DHT22;11504;43.334;21.918;2022-08-11T15:52:05;29.4;100.0
22674;DHT22;11504;43.334;21.918;2022-08-11T15:57:05;29.4;100.0
22674;DHT22;11504;43.334;21.918;2022-08-11T16:01:53;29.0;100.0
22674;DHT22;11504;43.334;21.918;2022-08-11T16:06:57;29.0;100.0
22674;DHT22;11504;43.334;21.918;2022-08-11T16:11:56;28.7;100.0
22674;DHT22;11504;43.334;21.918;2022-08-11T16:16:53;28.7;100.0
22674;DHT22;11504;43.334;21.918;2022-08-11T16:21:44;28.5;100.0
22674;DHT22;11504;43.334;21.918;2022-08-11T16:26:40;28.5;100.0
22674;DHT22;11504;43.334;21.918;2022-08-11T16:31:26;28.3;100.0
22674;DHT22;11504;43.334;21.918;2022-08-11T16:36:15;28.3;100.0
22674;DHT22;11504;43.334;21.918;2022-08-11T16:41:07;28.2;100.0
22674;DHT22;11504;43.334;21.918;2022-08-11T16:45:56;28.2;100.0
22674;DHT22;11504;43.334;21.918;2022-08-11T16:50:42;28.0;100.0
22674;DHT22;11504;43.334;21.918;2022-08-11T16:55:24;28.0;100.0
22674;DHT22;11504;43.334;21.918;2022-08-11T17:00:11;27.8;100.0
22674;DHT22;11504;43.334;21.918;2022-08-11T17:04:58;27.8;100.0
22674;DHT22;11504;43.334;21.918;2022-08-11T17:10:02;27.7;100.0
22674;DHT22;11504;43.334;21.918;2022-08-11T17:15:16;27.7;100.0
22674;DHT22;11504;43.334;21.918;2022-08-11T17:20:10;27.6;100.0
22674;DHT22;11504;43.334;21.918;2022-08-11T17:24:54;27.6;100.0
22674;DHT22;11504;43.334;21.918;2022-08-11T17:29:53;27.4;100.0
22674;DHT22;11504;43.334;21.918;2022-08-11T17:34:48;27.4;100.0
22674;DHT22;11504;43.334;21.918;2022-08-11T17:39:49;27.2;100.0
22674;DHT22;11504;43.334;21.918;2022-08-11T17:44:35;27.2;100.0
22674;DHT22;11504;43.334;21.918;2022-08-11T17:49:21;27.2;100.0
22674;DHT22;11504;43.334;21.918;2022-08-11T17:54:06;27.1;100.0
22674;DHT22;11504;43.334;21.918;2022-08-11T17:58:51;27.1;100.0
22674;DHT22;11504;43.334;21.918;2022-08-11T18:03:37;26.9;100.0
22674;DHT22;11504;43.334;21.918;2022-08-11T18:08:20;26.9;100.0
22674;DHT22;11504;43.334;21.918;2022-08-11T18:12:59;26.7;100.0
22674;DHT22;11504;43.334;21.918;2022-08-11T18:17:40;26.7;100.0
22674;DHT22;11504;43.334;21.918;2022-08-11T18:22:25;26.4;100.0
22674;DHT22;11504;43.334;21.918;2022-08-11T18:27:20;26.4;100.0
22674;DHT22;11504;43.334;21.918;2022-08-11T18:32:07;26.2;100.0
22674;DHT22;11504;43.334;21.918;2022-08-11T18:37:04;26.2;100.0
22674;DHT22;11504;43.334;21.918;2022-08-11T18:42:06;26.0;100.0
22674;DHT22;11504;43.334;21.918;2022-08-11T18:47:01;26.0;100.0
22674;DHT22;11504;43.334;21.918;2022-08-11T18:51:55;25.9;100.0
22674;DHT22;11504;43.334;21.918;2022-08-11T18:56:38;25.9;100.0
22674;DHT22;11504;43.334;21.918;2022-08-11T19:01:24;25.8;100.0
22674;DHT22;11504;43.334;21.918;2022-08-11T19:06:10;25.8;100.0
22674;DHT22;11504;43.334;21.918;2022-08-11T19:10:56;25.6;100.0
22674;DHT22;11504;43.334;21.918;2022-08-11T19:15:38;25.6;100.0
22674;DHT22;11504;43.334;21.918;2022-08-11T19:20:29;25.6;100.0
22674;DHT22;11504;43.334;21.918;2022-08-11T19:25:15;25.6;100.0
22674;DHT22;11504;43.334;21.918;2022-08-11T19:30:01;25.5;100.0
22674;DHT22;11504;43.334;21.918;2022-08-11T19:34:41;25.5;100.0
22674;DHT22;11504;43.334;21.918;2022-08-11T19:39:22;25.5;100.0
22674;DHT22;11504;43.334;21.918;2022-08-11T19:44:07;25.4;100.0
22674;DHT22;11504;43.334;21.918;2022-08-11T19:48:56;25.4;100.0
22674;DHT22;11504;43.334;21.918;2022-08-11T19:53:38;25.3;100.0
22674;DHT22;11504;43.334;21.918;2022-08-11T19:58:20;25.3;100.0
22674;DHT22;11504;43.334;21.918;2022-08-11T20:03:01;25.3;100.0
22674;DHT22;11504;43.334;21.918;2022-08-11T20:07:49;25.3;100.0
22674;DHT22;11504;43.334;21.918;2022-08-11T20:12:38;25.3;100.0
22674;DHT22;11504;43.334;21.918;2022-08-11T20:17:26;25.3;100.0
22674;DHT22;11504;43.334;21.918;2022-08-11T20:22:18;25.4;100.0
22674;DHT22;11504;43.334;21.918;2022-08-11T20:27:07;25.4;100.0
22674;DHT22;11504;43.334;21.918;2022-08-11T20:31:48;25.5;100.0
22674;DHT22;11504;43.334;21.918;2022-08-11T20:36:24;25.5;100.0
22674;DHT22;11504;43.334;21.918;2022-08-11T20:41:10;25.2;100.0
22674;DHT22;11504;43.334;21.918;2022-08-11T20:45:48;25.2;100.0
22674;DHT22;11504;43.334;21.918;2022-08-11T20:50:29;25.0;100.0
22674;DHT22;11504;43.334;21.918;2022-08-11T20:55:10;25.0;100.0
22674;DHT22;11504;43.334;21.918;2022-08-11T20:59:50;24.8;100.0
22674;DHT22;11504;43.334;21.918;2022-08-11T21:04:29;24.8;100.0
22674;DHT22;11504;43.334;21.918;2022-08-11T21:09:11;24.8;100.0
22674;DHT22;11504;43.334;21.918;2022-08-11T21:14:05;24.6;100.0
22674;DHT22;11504;43.334;21.918;2022-08-11T21:19:01;24.6;100.0
22674;DHT22;11504;43.334;21.918;2022-08-11T21:24:02;24.4;100.0
22674;DHT22;11504;43.334;21.918;2022-08-11T21:28:56;24.4;100.0
22674;DHT22;11504;43.334;21.918;2022-08-11T21:33:44;24.1;100.0
22674;DHT22;11504;43.334;21.918;2022-08-11T21:38:29;24.1;100.0
22674;DHT22;11504;43.334;21.918;2022-08-11T21:43:11;23.9;100.0
22674;DHT22;11504;43.334;21.918;2022-08-11T21:47:57;23.9;100.0
22674;DHT22;11504;43.334;21.918;2022-08-11T21:52:41;23.7;100.0
22674;DHT22;11504;43.334;21.918;2022-08-11T21:57:20;23.7;100.0
22674;DHT22;11504;43.334;21.918;2022-08-11T22:02:01;23.6;100.0
22674;DHT22;11504;43.334;21.918;2022-08-11T22:06:43;23.6;100.0
22674;DHT22;11504;43.334;21.918;2022-08-11T22:11:23;23.5;100.0
22674;DHT22;11504;43.334;21.918;2022-08-11T22:16:01;23.5;100.0
22674;DHT22;11504;43.334;21.918;2022-08-11T22:20:40;23.4;100.0
22674;DHT22;11504;43.334;21.918;2022-08-11T22:25:25;23.4;100.0
22674;DHT22;11504;43.334;21.918;2022-08-11T22:30:09;23.4;100.0
22674;DHT22;11504;43.334;21.918;2022-08-11T22:34:50;23.4;100.0
22674;DHT22;11504;43.334;21.918;2022-08-11T22:39:36;23.4;100.0
22674;DHT22;11504;43.334;21.918;2022-08-11T22:44:14;23.3;100.0
22674;DHT22;11504;43.334;21.918;2022-08-11T22:48:55;23.3;100.0
22674;DHT22;11504;43.334;21.918;2022-08-11T22:53:39;23.2;100.0
22674;DHT22;11504;43.334;21.918;2022-08-11T22:58:25;23.2;100.0
22674;DHT22;11504;43.334;21.918;2022-08-11T23:03:06;23.0;100.0
22674;DHT22;11504;43.334;21.918;2022-08-11T23:07:49;23.0;100.0
22674;DHT22;11504;43.334;21.918;2022-08-11T23:12:29;22.9;100.0
22674;DHT22;11504;43.334;21.918;2022-08-11T23:17:07;22.9;100.0
22674;DHT22;11504;43.334;21.918;2022-08-11T23:21:50;22.8;100.0
22674;DHT22;11504;43.334;21.918;2022-08-11T23:26:30;22.8;100.0
22674;DHT22;11504;43.334;21.918;2022-08-11T23:31:13;22.8;100.0
22674;DHT22;11504;43.334;21.918;2022-08-11T23:35:51;22.8;100.0
22674;DHT22;11504;43.334;21.918;2022-08-11T23:40:29;22.6;100.0
22674;DHT22;11504;43.334;21.918;2022-08-11T23:45:09;22.6;100.0
22674;DHT22;11504;43.334;21.918;2022-08-11T23:49:51;22.5;100.0
22674;DHT22;11504;43.334;21.918;2022-08-11T23:54:33;22.5;100.0
22674;DHT22;11504;43.334;21.918;2022-08-11T23:59:15;22.5;100.0
